createdAt,value
2018-08-09T00:01:08.354Z,2.50
2018-08-09T00:03:38.289Z,2.70
2018-08-09T00:06:08.228Z,2.42
2018-08-09T00:08:38.251Z,2.47
2018-08-09T00:11:08.103Z,2.37
2018-08-09T00:13:38.391Z,2.20
2018-08-09T00:16:08.400Z,2.23
2018-08-09T00:18:38.048Z,2.50
2018-08-09T00:21:07.868Z,2.50
2018-08-09T00:23:38.539Z,2.50
2018-08-09T00:26:09.408Z,2.23
2018-08-09T00:28:39.441Z,2.33
2018-08-09T00:31:09.563Z,2.97
2018-08-09T00:33:39.540Z,2.33
2018-08-09T00:36:09.253Z,2.10
2018-08-09T00:38:39.221Z,2.13
2018-08-09T00:41:09.264Z,2.70
2018-08-09T00:43:39.199Z,2.43
2018-08-09T00:46:09.136Z,2.17
2018-08-09T00:48:39.261Z,2.53
2018-08-09T00:51:09.123Z,2.60
2018-08-09T00:53:39.319Z,2.40
2018-08-09T00:56:09.239Z,2.50
2018-08-09T00:58:39.114Z,2.63
2018-08-09T01:01:08.996Z,2.70
2018-08-09T01:03:38.924Z,2.37
2018-08-09T01:06:08.824Z,2.50
2018-08-09T01:08:41.448Z,2.10
2018-08-09T01:11:11.263Z,2.30
2018-08-09T01:13:41.200Z,2.17
2018-08-09T01:16:11.044Z,2.37
2018-08-09T01:18:41.028Z,2.92
2018-08-09T01:21:10.979Z,2.83
2018-08-09T01:23:40.986Z,2.33
2018-08-09T01:26:10.953Z,2.50
2018-08-09T01:28:40.921Z,2.40
2018-08-09T01:31:10.830Z,2.77
2018-08-09T01:33:40.758Z,2.57
2018-08-09T01:36:10.638Z,2.30
2018-08-09T01:38:40.413Z,2.37
2018-08-09T01:41:10.325Z,2.80
2018-08-09T01:43:55.686Z,1.90
2018-08-09T01:46:25.955Z,2.67
2018-08-09T01:48:56.550Z,2.20
2018-08-09T01:51:27.429Z,2.37
2018-08-09T01:53:57.579Z,2.50
2018-08-09T01:56:27.416Z,2.30
2018-08-09T01:58:57.245Z,2.37
2018-08-09T02:01:27.100Z,2.37
2018-08-09T02:03:57.144Z,2.27
2018-08-09T02:06:26.883Z,2.50
2018-08-09T02:09:00.763Z,2.47
2018-08-09T02:11:30.455Z,2.33
2018-08-09T02:14:00.948Z,2.50
2018-08-09T02:16:31.005Z,2.40
2018-08-09T02:19:01.168Z,2.60
2018-08-09T02:21:32.078Z,2.50
2018-08-09T02:24:02.693Z,2.15
2018-08-09T02:26:32.488Z,2.27
2018-08-09T02:29:02.279Z,2.37
2018-08-09T02:31:32.204Z,2.50
2018-08-09T02:34:02.153Z,2.10
2018-08-09T02:36:31.994Z,3.13
2018-08-09T02:39:01.800Z,2.57
2018-08-09T02:41:31.713Z,2.37
2018-08-09T02:44:01.623Z,2.53
2018-08-09T02:46:31.445Z,1.85
2018-08-09T02:49:01.392Z,2.77
2018-08-09T02:51:31.320Z,2.62
2018-08-09T02:54:01.281Z,2.58
2018-08-09T02:56:31.203Z,2.45
2018-08-09T02:59:01.202Z,2.50
2018-08-09T03:01:33.965Z,2.85
2018-08-09T03:04:03.871Z,2.23
2018-08-09T03:06:33.599Z,2.90
2018-08-09T03:09:03.783Z,2.60
2018-08-09T03:11:33.573Z,2.10
2018-08-09T03:14:03.263Z,2.10
2018-08-09T03:16:33.113Z,2.52
2018-08-09T03:19:03.173Z,2.50
2018-08-09T03:21:33.078Z,2.40
2018-08-09T03:24:02.970Z,2.53
2018-08-09T03:26:32.849Z,2.50
2018-08-09T03:29:02.767Z,2.17
2018-08-09T03:31:32.533Z,2.60
2018-08-09T03:34:02.482Z,3.60
2018-08-09T03:36:32.160Z,2.80
2018-08-09T03:39:02.166Z,2.70
2018-08-09T03:41:32.098Z,2.55
2018-08-09T03:44:02.193Z,2.90
2018-08-09T03:46:32.067Z,2.50
2018-08-09T03:49:02.022Z,2.50
2018-08-09T03:51:32.213Z,2.83
2018-08-09T03:54:02.090Z,2.62
2018-08-09T03:56:31.991Z,3.15
2018-08-09T03:59:02.074Z,2.77
2018-08-09T04:01:32.308Z,2.60
2018-08-09T04:04:02.349Z,2.63
2018-08-09T04:06:32.108Z,2.80
2018-08-09T04:09:01.777Z,2.63
2018-08-09T04:11:31.550Z,3.23
2018-08-09T04:14:01.388Z,2.90
2018-08-09T04:16:31.324Z,2.90
2018-08-09T04:19:01.135Z,2.53
2018-08-09T04:21:31.153Z,2.70
2018-08-09T04:24:01.155Z,3.13
2018-08-09T04:26:31.365Z,3.17
2018-08-09T04:29:01.302Z,3.03
2018-08-09T04:31:31.094Z,3.17
2018-08-09T04:34:00.939Z,3.27
2018-08-09T04:36:30.833Z,3.17
2018-08-09T04:39:00.653Z,3.00
2018-08-09T04:41:30.538Z,3.20
2018-08-09T04:44:00.171Z,3.10
2018-08-09T04:46:30.063Z,3.00
2018-08-09T04:48:59.979Z,3.80
2018-08-09T04:51:30.028Z,4.37
2018-08-09T04:53:59.858Z,5.85
2018-08-09T04:56:29.804Z,4.87
2018-08-09T04:58:59.579Z,6.72
2018-08-09T05:01:29.520Z,4.90
2018-08-09T05:03:59.299Z,6.17
2018-08-09T05:06:29.165Z,6.03
2018-08-09T05:08:58.858Z,5.23
2018-08-09T05:11:29.478Z,5.60
2018-08-09T05:13:59.318Z,6.43
2018-08-09T05:16:29.311Z,4.93
2018-08-09T05:18:59.131Z,6.10
2018-08-09T05:21:29.097Z,7.27
2018-08-09T05:23:58.955Z,6.10
2018-08-09T05:26:28.845Z,7.73
2018-08-09T05:28:58.808Z,8.70
2018-08-09T05:31:28.640Z,7.37
2018-08-09T05:33:58.511Z,6.70
2018-08-09T05:36:28.678Z,7.80
2018-08-09T05:38:58.611Z,8.20
2018-08-09T05:41:28.573Z,6.20
2018-08-09T05:43:58.262Z,7.72
2018-08-09T05:46:28.153Z,7.20
2018-08-09T05:48:58.128Z,6.53
2018-08-09T05:51:28.074Z,7.70
2018-08-09T05:53:58.468Z,5.78
2018-08-09T05:56:28.582Z,5.90
2018-08-09T05:58:58.607Z,5.30
2018-08-09T06:01:28.520Z,5.93
2018-08-09T06:03:58.394Z,6.93
2018-08-09T06:06:28.301Z,6.40
2018-08-09T06:08:59.114Z,5.77
2018-08-09T06:11:30.842Z,5.53
2018-08-09T06:14:01.275Z,5.90
2018-08-09T06:16:32.318Z,5.77
2018-08-09T06:19:03.312Z,4.30
2018-08-09T06:21:33.100Z,5.42
2018-08-09T06:24:02.998Z,5.67
2018-08-09T06:26:32.893Z,5.40
2018-08-09T06:29:02.828Z,6.20
2018-08-09T06:31:32.695Z,6.70
2018-08-09T06:34:02.762Z,6.10
2018-08-09T06:36:32.792Z,9.63
2018-08-09T06:39:03.072Z,6.60
2018-08-09T06:41:32.954Z,5.73
2018-08-09T06:44:02.847Z,5.47
2018-08-09T06:46:32.799Z,6.20
2018-08-09T06:49:03.013Z,6.10
2018-08-09T06:51:33.042Z,8.95
2018-08-09T06:54:02.883Z,6.55
2018-08-09T06:56:33.102Z,5.60
2018-08-09T06:59:03.273Z,5.28
2018-08-09T07:01:33.223Z,4.47
2018-08-09T07:04:03.547Z,5.03
2018-08-09T07:06:33.402Z,5.53
2018-08-09T07:09:03.505Z,4.30
2018-08-09T07:11:33.783Z,4.27
2018-08-09T07:14:03.956Z,4.93
2018-08-09T07:16:33.771Z,4.70
2018-08-09T07:19:03.493Z,5.80
2018-08-09T07:21:33.514Z,3.90
2018-08-09T07:24:03.758Z,4.10
2018-08-09T07:26:33.952Z,4.40
2018-08-09T07:29:04.008Z,4.83
2018-08-09T07:31:34.185Z,4.30
2018-08-09T07:34:04.531Z,4.40
2018-08-09T07:36:34.694Z,4.80
2018-08-09T07:39:06.517Z,5.10
2018-08-09T07:41:36.783Z,4.83
2018-08-09T07:44:06.641Z,4.87
2018-08-09T07:46:36.702Z,4.80
2018-08-09T07:49:06.784Z,5.60
2018-08-09T07:51:36.864Z,6.20
2018-08-09T07:54:06.756Z,5.37
2018-08-09T07:56:36.801Z,5.03
2018-08-09T07:59:06.878Z,4.93
2018-08-09T08:01:36.953Z,5.30
2018-08-09T08:04:06.896Z,5.17
2018-08-09T08:06:36.762Z,5.15
2018-08-09T08:09:10.503Z,6.22
2018-08-09T08:11:40.694Z,6.07
2018-08-09T08:14:10.832Z,6.10
2018-08-09T08:16:40.842Z,5.90
2018-08-09T08:19:10.919Z,6.73
2018-08-09T08:21:41.045Z,7.10
2018-08-09T08:24:11.033Z,6.95
2018-08-09T08:26:41.139Z,7.40
2018-08-09T08:29:11.018Z,6.60
2018-08-09T08:31:41.142Z,7.00
2018-08-09T08:34:11.072Z,7.37
2018-08-09T08:36:41.280Z,6.62
2018-08-09T08:39:11.594Z,7.53
2018-08-09T08:41:41.588Z,8.90
2018-08-09T08:44:11.603Z,7.60
2018-08-09T08:46:41.430Z,8.03
2018-08-09T08:49:12.438Z,7.90
2018-08-09T08:51:42.373Z,7.87
2018-08-09T08:54:12.474Z,8.47
2018-08-09T08:56:42.555Z,7.97
2018-08-09T08:59:12.700Z,18.43
2018-08-09T09:01:42.702Z,8.67
2018-08-09T09:04:12.802Z,8.67
2018-08-09T09:06:43.054Z,7.43
2018-08-09T09:09:14.149Z,7.90
2018-08-09T09:11:44.027Z,9.13
2018-08-09T09:14:14.267Z,8.50
2018-08-09T09:16:44.272Z,8.63
2018-08-09T09:19:14.306Z,9.03
2018-08-09T09:21:44.341Z,7.65
2018-08-09T09:24:14.219Z,9.15
2018-08-09T09:26:44.343Z,8.78
2018-08-09T09:29:14.514Z,9.50
2018-08-09T09:31:44.559Z,8.57
2018-08-09T09:34:14.644Z,8.83
2018-08-09T09:36:44.673Z,8.03
2018-08-09T09:39:14.619Z,7.57
2018-08-09T09:41:44.614Z,8.90
2018-08-09T09:44:14.781Z,7.93
2018-08-09T09:46:44.613Z,9.67
2018-08-09T09:49:14.656Z,8.73
2018-08-09T09:51:44.548Z,8.20
2018-08-09T09:54:15.244Z,8.28
2018-08-09T09:56:46.224Z,8.13
2018-08-09T09:59:16.093Z,7.40
2018-08-09T10:01:46.144Z,8.07
2018-08-09T10:04:16.120Z,7.80
2018-08-09T10:06:46.025Z,7.90
2018-08-09T10:09:15.992Z,8.00
2018-08-09T10:11:45.971Z,8.07
2018-08-09T10:14:16.193Z,6.97
2018-08-09T10:16:46.286Z,8.37
2018-08-09T10:19:16.334Z,7.70
2018-08-09T10:21:46.487Z,8.33
2018-08-09T10:24:16.592Z,7.53
2018-08-09T10:26:46.774Z,7.22
2018-08-09T10:29:16.818Z,6.35
2018-08-09T10:31:46.867Z,7.20
2018-08-09T10:34:16.828Z,7.57
2018-08-09T10:36:46.879Z,7.17
2018-08-09T10:39:16.852Z,7.00
2018-08-09T10:41:46.971Z,6.57
2018-08-09T10:44:16.844Z,7.20
2018-08-09T10:46:46.874Z,7.42
2018-08-09T10:49:17.145Z,7.20
2018-08-09T10:51:46.914Z,8.03
2018-08-09T10:54:16.922Z,7.97
2018-08-09T10:56:47.025Z,8.00
2018-08-09T10:59:17.114Z,6.43
2018-08-09T11:01:48.179Z,8.03
2018-08-09T11:04:18.652Z,7.30
2018-08-09T11:06:48.799Z,6.80
2018-08-09T11:09:18.933Z,6.43
2018-08-09T11:11:48.833Z,6.83
2018-08-09T11:14:18.933Z,6.60
2018-08-09T11:16:49.050Z,6.40
2018-08-09T11:19:19.099Z,5.63
2018-08-09T11:21:49.094Z,5.30
2018-08-09T11:24:19.004Z,6.33
2018-08-09T11:26:49.099Z,5.83
2018-08-09T11:29:25.618Z,6.53
2018-08-09T11:31:55.737Z,6.72
2018-08-09T11:34:25.590Z,7.03
2018-08-09T11:36:55.668Z,7.40
2018-08-09T11:39:27.808Z,7.73
2018-08-09T11:41:59.072Z,8.23
2018-08-09T11:44:29.062Z,8.70
2018-08-09T11:46:59.004Z,8.35
2018-08-09T11:49:33.159Z,7.80
2018-08-09T11:52:03.238Z,8.10
2018-08-09T11:54:33.156Z,7.17
2018-08-09T11:57:03.455Z,7.03
2018-08-09T11:59:33.878Z,8.03
2018-08-09T12:02:03.881Z,8.17
2018-08-09T12:04:33.744Z,7.58
2018-08-09T12:07:03.822Z,7.77
2018-08-09T12:09:34.205Z,8.77
2018-08-09T12:12:04.327Z,7.92
2018-08-09T12:14:34.643Z,8.10
2018-08-09T12:17:04.717Z,7.80
2018-08-09T12:19:34.923Z,8.10
2018-08-09T12:22:04.983Z,8.95
2018-08-09T12:24:35.232Z,8.20
2018-08-09T12:27:05.261Z,9.85
2018-08-09T12:29:35.456Z,9.03
2018-08-09T12:32:06.187Z,8.88
2018-08-09T12:34:36.237Z,10.00
2018-08-09T12:37:06.521Z,8.53
2018-08-09T12:39:36.482Z,8.80
2018-08-09T12:42:07.368Z,8.08
2018-08-09T12:44:37.393Z,9.13
2018-08-09T12:47:07.837Z,10.37
2018-08-09T12:49:38.070Z,8.60
2018-08-09T12:52:08.438Z,9.37
2018-08-09T12:54:44.833Z,8.10
2018-08-09T12:57:14.852Z,8.53
2018-08-09T12:59:44.885Z,9.33
2018-08-09T13:02:14.936Z,8.77
2018-08-09T13:04:44.918Z,8.77
2018-08-09T13:07:14.871Z,9.20
2018-08-09T13:09:45.012Z,9.40
2018-08-09T13:12:15.032Z,9.70
2018-08-09T13:14:44.987Z,9.50
2018-08-09T13:17:15.029Z,8.77
2018-08-09T13:19:44.933Z,7.97
2018-08-09T13:22:14.945Z,8.40
2018-08-09T13:24:45.157Z,8.97
2018-08-09T13:27:21.702Z,9.13
2018-08-09T13:29:51.702Z,8.20
2018-08-09T13:32:21.614Z,6.33
2018-08-09T13:34:51.633Z,6.33
2018-08-09T13:37:21.532Z,6.40
2018-08-09T13:39:51.663Z,6.03
2018-08-09T13:42:21.659Z,6.20
2018-08-09T13:44:51.692Z,7.15
2018-08-09T13:47:21.678Z,7.90
2018-08-09T13:49:51.727Z,6.55
2018-08-09T13:52:21.557Z,6.27
2018-08-09T13:54:51.618Z,6.33
2018-08-09T13:57:21.795Z,5.10
2018-08-09T13:59:51.830Z,5.80
2018-08-09T14:02:21.925Z,4.30
2018-08-09T14:04:51.941Z,4.73
2018-08-09T14:07:21.712Z,5.05
2018-08-09T14:09:51.566Z,5.27
2018-08-09T14:12:22.753Z,4.67
2018-08-09T14:14:53.529Z,4.80
2018-08-09T14:22:16.449Z,6.03
2018-08-09T14:24:46.701Z,5.17
2018-08-09T14:27:17.067Z,4.87
2018-08-09T14:29:47.243Z,5.53
2018-08-09T14:32:17.226Z,5.60
2018-08-09T14:34:47.246Z,5.53
2018-08-09T14:37:17.607Z,4.73
2018-08-09T14:39:47.838Z,5.00
2018-08-09T14:42:18.361Z,4.50
2018-08-09T14:44:48.558Z,4.90
2018-08-09T14:47:18.890Z,4.77
2018-08-09T14:49:49.283Z,4.85
2018-08-09T14:52:19.673Z,4.80
2018-08-09T14:54:49.893Z,4.58
2018-08-09T14:57:19.998Z,4.00
2018-08-09T14:59:50.157Z,4.83
2018-08-09T15:02:20.634Z,10.58
2018-08-09T15:04:51.322Z,5.30
2018-08-09T15:07:21.754Z,5.27
2018-08-09T15:09:51.795Z,4.78
2018-08-09T15:12:21.886Z,4.87
2018-08-09T15:14:52.087Z,4.95
2018-08-09T15:17:22.347Z,3.90
2018-08-09T15:19:52.584Z,4.58
2018-08-09T15:22:22.777Z,4.17
2018-08-09T15:24:52.924Z,3.87
2018-08-09T15:27:23.121Z,3.37
2018-08-09T15:29:59.797Z,3.58
2018-08-09T15:32:29.756Z,3.57
2018-08-09T15:35:00.028Z,3.73
2018-08-09T15:37:30.487Z,3.57
2018-08-09T15:40:00.774Z,3.70
2018-08-09T15:42:31.161Z,3.72
2018-08-09T15:45:01.157Z,3.67
2018-08-09T15:47:31.460Z,3.37
2018-08-09T15:50:01.612Z,3.42
2018-08-09T15:52:31.798Z,3.50
2018-08-09T15:55:01.923Z,3.15
2018-08-09T15:57:32.088Z,3.80
2018-08-09T16:00:02.263Z,3.73
2018-08-09T16:02:32.426Z,3.33
2018-08-09T16:05:02.444Z,3.43
2018-08-09T16:07:32.663Z,3.75
2018-08-09T16:10:03.021Z,3.15
2018-08-09T16:12:33.304Z,6.83
2018-08-09T16:15:04.259Z,3.65
2018-08-09T16:17:35.772Z,4.00
2018-08-09T16:20:08.819Z,3.62
2018-08-09T16:22:38.877Z,3.23
2018-08-09T16:25:15.221Z,3.70
2018-08-09T16:27:46.298Z,3.30
2018-08-09T16:30:20.080Z,3.10
2018-08-09T16:32:50.417Z,3.55
2018-08-09T16:35:20.643Z,3.20
2018-08-09T16:37:50.965Z,3.67
2018-08-09T16:40:25.071Z,3.13
2018-08-09T16:42:55.421Z,3.37
2018-08-09T16:45:25.947Z,3.50
2018-08-09T16:47:56.413Z,4.33
2018-08-09T16:50:27.316Z,3.33
2018-08-09T16:52:57.427Z,3.20
2018-08-09T16:55:27.491Z,3.30
2018-08-09T16:57:57.491Z,2.80
2018-08-09T17:00:27.736Z,3.03
2018-08-09T17:02:57.941Z,2.57
2018-08-09T17:05:31.629Z,2.60
2018-08-09T17:08:02.019Z,2.62
2018-08-09T17:10:32.235Z,2.60
2018-08-09T17:13:02.518Z,3.00
2018-08-09T17:15:32.442Z,2.93
2018-08-09T17:18:02.867Z,2.90
2018-08-09T17:20:48.240Z,2.80
2018-08-09T17:23:18.292Z,2.67
2018-08-09T17:25:48.552Z,2.40
2018-08-09T17:28:18.761Z,2.70
2018-08-09T17:30:49.053Z,2.45
2018-08-09T17:33:19.142Z,2.60
2018-08-09T17:35:49.157Z,3.37
2018-08-09T17:38:22.067Z,3.33
2018-08-09T17:40:52.130Z,3.42
2018-08-09T17:43:22.391Z,2.52
2018-08-09T17:45:53.542Z,2.63
2018-08-09T17:48:23.513Z,2.72
2018-08-09T17:50:53.811Z,2.37
2018-08-09T17:53:23.706Z,2.70
2018-08-09T17:55:55.242Z,2.80
2018-08-09T17:58:25.550Z,2.93
2018-08-09T18:00:55.792Z,2.43
2018-08-09T18:03:25.857Z,2.43
2018-08-09T18:05:57.063Z,2.60
2018-08-09T18:08:28.128Z,2.60
2018-08-09T18:10:58.537Z,2.43
2018-08-09T18:13:28.854Z,2.60
2018-08-09T18:15:59.273Z,2.50
2018-08-09T18:18:29.500Z,2.73
2018-08-09T18:21:00.089Z,2.60
2018-08-09T18:23:33.142Z,2.60
2018-08-09T18:26:03.343Z,2.60
2018-08-09T18:28:33.514Z,2.90
2018-08-09T18:31:04.092Z,3.00
2018-08-09T18:33:34.451Z,3.20
2018-08-09T18:36:05.323Z,3.23
2018-08-09T18:38:35.822Z,2.70
2018-08-09T18:41:06.422Z,2.37
2018-08-09T18:43:37.065Z,2.10
2018-08-09T18:46:07.601Z,2.08
2018-08-09T18:48:38.155Z,1.90
2018-08-09T18:51:08.355Z,2.10
2018-08-09T18:53:38.493Z,2.10
2018-08-09T18:56:08.852Z,2.10
2018-08-09T18:58:39.087Z,2.47
2018-08-09T19:01:09.714Z,2.20
2018-08-09T19:03:39.996Z,1.90
2018-08-09T19:06:10.312Z,2.15
2018-08-09T19:08:40.544Z,2.33
2018-08-09T19:11:10.798Z,2.20
2018-08-09T19:13:41.178Z,2.40
2018-08-09T19:16:11.723Z,2.20
2018-08-09T19:18:42.074Z,1.83
2018-08-09T19:21:12.521Z,2.37
2018-08-09T19:23:42.417Z,2.13
2018-08-09T19:26:12.617Z,2.40
2018-08-09T19:28:42.792Z,2.12
2018-08-09T19:31:12.933Z,2.37
2018-08-09T19:33:43.932Z,2.12
2018-08-09T19:36:14.840Z,2.52
2018-08-09T19:38:46.277Z,2.37
2018-08-09T19:41:17.015Z,2.07
2018-08-09T19:43:48.371Z,2.23
2018-08-09T19:46:19.389Z,2.15
2018-08-09T19:48:49.542Z,2.00
2018-08-09T19:51:19.687Z,2.10
2018-08-09T19:53:49.881Z,2.37
2018-08-09T19:56:20.146Z,1.93
2018-08-09T19:58:50.377Z,1.90
2018-08-09T20:01:20.610Z,2.03
2018-08-09T20:03:50.549Z,2.27
2018-08-09T20:06:21.005Z,2.30
2018-08-09T20:08:51.179Z,1.90
2018-08-09T20:11:21.301Z,2.17
2018-08-09T20:16:36.470Z,1.83
2018-08-09T20:19:06.995Z,1.80
2018-08-09T20:21:36.939Z,1.90
2018-08-09T20:24:06.916Z,2.00
2018-08-09T20:26:36.733Z,1.80
2018-08-09T20:29:06.771Z,1.60
2018-08-09T20:31:37.119Z,1.90
2018-08-09T20:34:07.413Z,2.00
2018-08-09T20:36:37.378Z,1.53
2018-08-09T20:39:13.133Z,1.90
2018-08-09T20:41:43.523Z,1.80
2018-08-09T20:44:16.753Z,1.93
2018-08-09T20:46:46.767Z,1.80
2018-08-09T20:49:17.110Z,1.60
2018-08-09T20:51:47.379Z,1.80
2018-08-09T20:54:17.552Z,1.83
2018-08-09T20:56:47.897Z,1.93
2018-08-09T20:59:17.989Z,2.33
2018-08-09T21:01:48.217Z,2.00
2018-08-09T21:04:18.170Z,2.33
2018-08-09T21:06:48.286Z,1.90
2018-08-09T21:09:18.338Z,2.00
2018-08-09T21:11:48.366Z,2.12
2018-08-09T21:14:18.360Z,1.77
2018-08-09T21:16:48.460Z,1.60
2018-08-09T21:19:18.510Z,1.80
2018-08-09T21:21:48.773Z,1.63
2018-08-09T21:24:18.906Z,1.33
2018-08-09T21:26:49.143Z,1.32
2018-08-09T21:29:19.338Z,1.57
2018-08-09T21:31:49.515Z,1.40
2018-08-09T21:34:19.777Z,1.40
2018-08-09T21:36:49.862Z,1.25
2018-08-09T21:39:20.053Z,1.30
2018-08-09T21:41:53.012Z,1.53
2018-08-09T21:44:23.060Z,1.43
2018-08-09T21:46:52.924Z,1.30
2018-08-09T21:49:23.072Z,1.43
2018-08-09T21:51:53.423Z,1.50
2018-08-09T21:54:23.348Z,1.30
2018-08-09T21:56:53.770Z,1.30
2018-08-09T21:59:24.858Z,1.50
2018-08-09T22:01:54.892Z,1.50
2018-08-09T22:04:24.932Z,1.20
2018-08-09T22:07:00.005Z,1.40
2018-08-09T22:09:42.280Z,1.25
2018-08-09T22:12:17.379Z,1.20
2018-08-09T22:14:52.492Z,1.23
2018-08-09T22:18:29.671Z,1.30
2018-08-09T22:21:05.086Z,1.10
2018-08-09T22:23:35.303Z,1.20
2018-08-09T22:26:05.451Z,1.37
2018-08-09T22:28:35.615Z,1.17
2018-08-09T22:31:05.579Z,1.17
2018-08-09T22:33:35.662Z,1.10
2018-08-09T22:36:05.851Z,1.07
2018-08-09T22:38:36.019Z,0.93
2018-08-09T22:41:06.117Z,1.20
2018-08-09T22:43:36.455Z,1.20
2018-08-09T22:46:06.780Z,1.17
2018-08-09T22:48:36.874Z,0.90
2018-08-09T22:51:06.930Z,1.00
2018-08-09T22:53:36.869Z,0.95
2018-08-09T22:56:06.846Z,1.00
2018-08-09T22:58:36.994Z,0.87
2018-08-09T23:01:07.131Z,0.73
2018-08-09T23:03:37.172Z,0.87
2018-08-09T23:06:07.906Z,0.60
2018-08-09T23:08:38.233Z,0.60
2018-08-09T23:11:08.925Z,0.60
2018-08-09T23:13:39.179Z,0.50
2018-08-09T23:16:09.340Z,1.07
2018-08-09T23:18:39.281Z,0.60
2018-08-09T23:21:09.323Z,0.53
2018-08-09T23:23:39.239Z,0.60
2018-08-09T23:26:09.091Z,0.60
2018-08-09T23:28:38.977Z,0.57
2018-08-09T23:31:09.616Z,0.70
2018-08-09T23:33:40.700Z,0.70
2018-08-09T23:36:11.584Z,0.60
2018-08-09T23:38:41.543Z,0.87
2018-08-09T23:41:11.583Z,0.60
2018-08-09T23:43:41.416Z,0.80
2018-08-09T23:46:11.488Z,0.80
2018-08-09T23:48:41.617Z,0.80
2018-08-09T23:51:11.572Z,0.80
2018-08-09T23:53:41.737Z,0.70
2018-08-09T23:56:11.784Z,1.00
2018-08-09T23:58:42.030Z,0.87
